createdAt,value
2023-05-10T00:02:10.054Z,9.70
2023-05-10T00:04:43.939Z,9.70
2023-05-10T00:07:17.971Z,9.70
2023-05-10T00:09:51.899Z,9.70
2023-05-10T00:12:24.882Z,9.60
2023-05-10T00:14:59.907Z,9.70
2023-05-10T00:17:33.004Z,9.60
2023-05-10T00:20:14.408Z,9.60
2023-05-10T00:22:41.663Z,9.60
2023-05-10T00:25:16.903Z,9.60
2023-05-10T00:27:43.936Z,9.60
2023-05-10T00:30:18.137Z,9.50
2023-05-10T00:32:51.926Z,9.50
2023-05-10T00:35:25.906Z,9.50
2023-05-10T00:37:53.020Z,9.50
2023-05-10T00:40:26.887Z,9.50
2023-05-10T00:43:01.966Z,9.50
2023-05-10T00:45:29.211Z,9.50
2023-05-10T00:48:03.935Z,9.50
2023-05-10T00:50:38.893Z,9.60
2023-05-10T00:53:06.020Z,9.60
2023-05-10T00:55:39.933Z,9.60
2023-05-10T00:58:07.457Z,9.60
2023-05-10T01:00:41.926Z,9.60
2023-05-10T01:03:09.179Z,9.60
2023-05-10T01:05:42.946Z,9.60
2023-05-10T01:08:10.157Z,9.50
2023-05-10T01:10:43.955Z,9.50
2023-05-10T01:13:18.956Z,9.50
2023-05-10T01:15:54.033Z,9.50
2023-05-10T01:18:29.051Z,9.50
2023-05-10T01:21:30.972Z,9.40
2023-05-10T01:24:00.766Z,9.40
2023-05-10T01:27:08.910Z,9.40
2023-05-10T01:30:17.789Z,9.40
2023-05-10T01:33:26.935Z,9.40
2023-05-10T01:36:30.647Z,9.40
2023-05-10T01:39:23.950Z,9.40
2023-05-10T01:42:27.949Z,9.40
2023-05-10T01:45:14.900Z,9.40
2023-05-10T01:47:45.860Z,9.50
2023-05-10T01:50:27.946Z,9.50
2023-05-10T01:52:59.120Z,9.50
2023-05-10T01:55:46.920Z,9.40
2023-05-10T01:58:21.537Z,9.40
2023-05-10T02:00:58.015Z,9.40
2023-05-10T02:03:33.957Z,9.40
2023-05-10T02:06:07.892Z,9.40
2023-05-10T02:08:38.380Z,9.40
2023-05-10T02:11:13.916Z,9.40
2023-05-10T02:13:50.915Z,9.40
2023-05-10T02:16:28.956Z,9.40
2023-05-10T02:19:10.928Z,9.40
2023-05-10T02:21:46.971Z,9.40
2023-05-10T02:24:17.037Z,9.40
2023-05-10T02:26:52.020Z,9.40
2023-05-10T02:29:27.938Z,9.40
2023-05-10T02:32:05.011Z,9.40
2023-05-10T02:34:33.430Z,9.40
2023-05-10T02:37:09.954Z,9.40
2023-05-10T02:39:37.909Z,9.50
2023-05-10T02:42:12.994Z,9.50
2023-05-10T02:44:42.764Z,9.40
2023-05-10T02:47:16.979Z,9.50
2023-05-10T02:49:44.637Z,9.40
2023-05-10T02:52:22.919Z,9.40
2023-05-10T02:54:56.085Z,9.50
2023-05-10T02:57:42.938Z,9.50
2023-05-10T03:00:22.930Z,9.50
2023-05-10T03:02:56.046Z,9.50
2023-05-10T03:05:23.430Z,9.50
2023-05-10T03:07:58.963Z,9.50
2023-05-10T03:10:32.358Z,9.40
2023-05-10T03:13:46.985Z,9.50
2023-05-10T03:16:28.192Z,9.50
2023-05-10T03:19:25.995Z,9.50
2023-05-10T03:21:59.201Z,9.50
2023-05-10T03:24:35.991Z,9.50
2023-05-10T03:27:05.465Z,9.50
2023-05-10T03:29:41.161Z,9.50
2023-05-10T03:32:14.970Z,9.50
2023-05-10T03:34:45.236Z,9.40
2023-05-10T03:37:18.996Z,9.40
2023-05-10T03:39:46.111Z,9.40
2023-05-10T03:42:20.026Z,9.40
2023-05-10T03:44:47.085Z,9.40
2023-05-10T03:47:20.956Z,9.40
2023-05-10T03:49:47.978Z,9.40
2023-05-10T03:52:21.953Z,9.40
2023-05-10T03:54:54.954Z,9.40
2023-05-10T03:57:28.928Z,9.40
2023-05-10T03:59:56.011Z,9.40
2023-05-10T04:02:30.028Z,9.40
2023-05-10T04:05:04.030Z,9.40
2023-05-10T04:07:37.980Z,9.40
2023-05-10T04:10:05.679Z,9.40
2023-05-10T04:12:48.108Z,9.40
2023-05-10T04:15:21.965Z,9.40
2023-05-10T04:18:02.187Z,9.40
2023-05-10T04:20:42.999Z,9.40
2023-05-10T04:23:09.985Z,9.40
2023-05-10T04:25:44.003Z,9.40
2023-05-10T04:28:11.347Z,9.40
2023-05-10T04:30:45.058Z,9.40
2023-05-10T04:33:18.983Z,9.50
2023-05-10T04:35:52.946Z,9.50
2023-05-10T04:38:20.045Z,9.40
2023-05-10T04:40:47.309Z,9.40
2023-05-10T04:43:20.957Z,9.40
2023-05-10T04:45:54.999Z,9.40
2023-05-10T04:48:22.235Z,9.50
2023-05-10T04:50:56.054Z,9.50
2023-05-10T04:53:23.752Z,9.50
2023-05-10T04:55:57.000Z,9.50
2023-05-10T04:58:30.978Z,9.50
2023-05-10T05:01:05.013Z,9.50
2023-05-10T05:03:39.022Z,9.60
2023-05-10T05:06:12.995Z,9.60
2023-05-10T05:08:39.998Z,9.60
2023-05-10T05:11:13.974Z,9.60
2023-05-10T05:13:41.102Z,9.60
2023-05-10T05:16:15.031Z,9.60
2023-05-10T05:19:02.060Z,9.60
2023-05-10T05:21:37.074Z,9.70
2023-05-10T05:24:04.719Z,9.80
2023-05-10T05:26:38.971Z,9.80
2023-05-10T05:29:12.997Z,9.70
2023-05-10T05:31:47.017Z,9.70
2023-05-10T05:34:14.069Z,9.60
2023-05-10T05:36:48.002Z,9.60
2023-05-10T05:39:15.613Z,9.60
2023-05-10T05:41:48.972Z,9.60
2023-05-10T05:44:22.951Z,9.60
2023-05-10T05:46:57.014Z,9.60
2023-05-10T05:49:32.768Z,9.50
2023-05-10T05:52:11.079Z,9.40
2023-05-10T05:54:38.092Z,9.40
2023-05-10T05:57:05.080Z,9.40
2023-05-10T05:59:38.974Z,9.30
2023-05-10T06:02:13.067Z,9.30
2023-05-10T06:04:42.702Z,9.30
2023-05-10T06:07:17.972Z,9.40
2023-05-10T06:09:51.971Z,9.50
2023-05-10T06:12:26.971Z,9.60
2023-05-10T06:14:54.090Z,9.70
2023-05-10T06:17:34.060Z,9.80
2023-05-10T06:20:08.025Z,9.90
2023-05-10T06:22:41.974Z,10.00
2023-05-10T06:25:17.195Z,10.00
2023-05-10T06:27:47.092Z,10.10
2023-05-10T06:30:23.006Z,10.20
2023-05-10T06:32:50.107Z,10.40
2023-05-10T06:35:24.027Z,10.50
2023-05-10T06:37:51.945Z,10.70
2023-05-10T06:40:26.265Z,10.80
2023-05-10T06:42:53.301Z,10.80
2023-05-10T06:45:20.647Z,10.90
2023-05-10T06:47:54.082Z,10.90
2023-05-10T06:50:27.997Z,11.00
2023-05-10T06:52:55.313Z,11.00
2023-05-10T06:55:29.017Z,11.10
2023-05-10T06:58:03.091Z,11.10
2023-05-10T07:00:37.046Z,11.20
2023-05-10T07:03:11.076Z,11.20
2023-05-10T07:05:38.342Z,11.20
2023-05-10T07:08:05.463Z,11.10
2023-05-10T07:10:39.274Z,11.10
2023-05-10T07:13:06.444Z,11.00
2023-05-10T07:15:41.977Z,11.10
2023-05-10T07:18:29.043Z,11.10
2023-05-10T07:21:04.129Z,11.20
2023-05-10T07:23:31.251Z,11.20
2023-05-10T07:26:04.993Z,11.30
2023-05-10T07:28:31.957Z,11.40
2023-05-10T07:31:07.319Z,11.60
2023-05-10T07:33:34.359Z,11.70
2023-05-10T07:36:15.238Z,11.80
2023-05-10T07:38:42.242Z,11.80
2023-05-10T07:41:16.994Z,11.80
2023-05-10T07:43:44.007Z,11.80
2023-05-10T07:46:18.052Z,11.70
2023-05-10T07:48:53.997Z,11.70
2023-05-10T07:51:21.110Z,11.60
2023-05-10T07:53:56.026Z,11.70
2023-05-10T07:56:40.096Z,11.80
2023-05-10T07:59:10.685Z,11.90
2023-05-10T08:01:46.083Z,11.80
2023-05-10T08:04:13.513Z,11.80
2023-05-10T08:06:49.290Z,11.90
2023-05-10T08:09:17.439Z,12.00
2023-05-10T08:11:51.001Z,12.20
2023-05-10T08:14:20.150Z,12.40
2023-05-10T08:16:55.000Z,12.50
2023-05-10T08:19:29.080Z,12.50
2023-05-10T08:22:06.051Z,12.50
2023-05-10T08:24:40.055Z,12.50
2023-05-10T08:27:07.372Z,12.40
2023-05-10T08:29:49.391Z,12.40
2023-05-10T08:32:24.018Z,12.40
2023-05-10T08:34:57.025Z,12.40
2023-05-10T08:37:27.319Z,12.50
2023-05-10T08:40:00.988Z,12.60
2023-05-10T08:42:39.060Z,12.90
2023-05-10T08:45:11.502Z,13.40
2023-05-10T08:47:48.474Z,13.60
2023-05-10T08:50:27.225Z,13.30
2023-05-10T08:53:07.059Z,13.40
2023-05-10T08:55:47.136Z,13.80
2023-05-10T08:58:21.044Z,13.90
2023-05-10T09:01:00.068Z,14.10
2023-05-10T09:03:34.042Z,14.40
2023-05-10T09:06:08.050Z,14.40
2023-05-10T09:08:44.006Z,14.90
2023-05-10T09:11:20.030Z,15.00
2023-05-10T09:13:56.111Z,14.70
2023-05-10T09:16:31.058Z,14.40
2023-05-10T09:19:05.102Z,14.20
2023-05-10T09:21:46.194Z,14.10
2023-05-10T09:24:20.020Z,14.00
2023-05-10T09:26:59.291Z,14.00
2023-05-10T09:29:33.082Z,14.00
2023-05-10T09:32:08.081Z,14.20
2023-05-10T09:34:36.758Z,14.20
2023-05-10T09:37:13.031Z,14.40
2023-05-10T09:39:42.558Z,14.30
2023-05-10T09:42:18.253Z,14.30
2023-05-10T09:44:54.202Z,15.00
2023-05-10T09:47:28.071Z,15.10
2023-05-10T09:49:58.971Z,14.90
2023-05-10T09:52:33.040Z,14.60
2023-05-10T09:55:07.071Z,14.20
2023-05-10T09:57:42.068Z,13.40
2023-05-10T10:00:18.039Z,12.60
2023-05-10T10:02:57.130Z,11.80
2023-05-10T10:05:42.027Z,11.00
2023-05-10T10:08:16.096Z,10.60
2023-05-10T10:10:46.328Z,10.40
2023-05-10T10:13:21.036Z,10.30
2023-05-10T10:15:52.356Z,10.40
2023-05-10T10:18:31.095Z,10.50
2023-05-10T10:21:05.118Z,10.70
2023-05-10T10:23:40.068Z,11.00
2023-05-10T10:26:08.897Z,11.20
2023-05-10T10:29:16.117Z,11.40
2023-05-10T10:32:28.136Z,11.60
2023-05-10T10:35:04.050Z,11.80
2023-05-10T10:37:56.023Z,12.00
2023-05-10T10:40:39.484Z,12.20
2023-05-10T10:43:27.043Z,12.40
2023-05-10T10:46:26.169Z,12.10
2023-05-10T10:49:18.198Z,12.20
2023-05-10T10:52:43.152Z,12.50
2023-05-10T10:55:19.949Z,12.70
2023-05-10T10:58:10.370Z,13.10
2023-05-10T11:00:48.161Z,13.10
2023-05-10T11:03:22.366Z,12.90
2023-05-10T11:05:59.068Z,12.90
2023-05-10T11:08:36.418Z,12.80
2023-05-10T11:11:15.081Z,12.80
2023-05-10T11:13:51.845Z,12.70
2023-05-10T11:16:33.155Z,12.90
2023-05-10T11:19:25.099Z,13.10
2023-05-10T11:22:23.044Z,13.00
2023-05-10T11:24:59.703Z,13.20
2023-05-10T11:27:33.067Z,13.20
2023-05-10T11:30:07.048Z,13.30
2023-05-10T11:32:41.080Z,13.60
2023-05-10T11:35:11.924Z,14.20
2023-05-10T11:37:52.088Z,14.80
2023-05-10T11:40:20.160Z,14.80
2023-05-10T11:42:54.112Z,14.70
2023-05-10T11:45:22.914Z,14.40
2023-05-10T11:47:58.374Z,14.10
2023-05-10T11:50:27.184Z,14.10
2023-05-10T11:53:04.345Z,14.00
2023-05-10T11:55:35.146Z,14.30
2023-05-10T11:58:03.736Z,14.80
2023-05-10T12:00:40.459Z,15.50
2023-05-10T12:03:07.758Z,15.30
2023-05-10T12:05:42.934Z,15.70
2023-05-10T12:08:16.425Z,15.70
2023-05-10T12:10:50.124Z,15.70
2023-05-10T12:13:17.817Z,15.50
2023-05-10T12:15:45.539Z,15.20
2023-05-10T12:18:38.151Z,14.90
2023-05-10T12:21:05.648Z,14.30
2023-05-10T12:23:32.737Z,14.40
2023-05-10T12:26:14.096Z,14.40
2023-05-10T12:28:41.100Z,14.60
2023-05-10T12:31:15.096Z,14.80
2023-05-10T12:33:53.131Z,14.70
2023-05-10T12:36:25.064Z,15.40
2023-05-10T12:39:00.127Z,15.90
2023-05-10T12:41:34.157Z,15.90
2023-05-10T12:44:08.302Z,15.60
2023-05-10T12:46:35.352Z,15.70
2023-05-10T12:49:09.885Z,15.40
2023-05-10T12:51:37.118Z,15.30
2023-05-10T12:54:11.100Z,15.10
2023-05-10T12:56:45.121Z,14.60
2023-05-10T12:59:12.128Z,14.60
2023-05-10T13:01:46.245Z,14.40
2023-05-10T13:04:13.703Z,14.70
2023-05-10T13:06:47.164Z,14.90
2023-05-10T13:09:21.127Z,14.60
2023-05-10T13:11:56.075Z,14.20
2023-05-10T13:14:30.195Z,14.20
2023-05-10T13:16:57.351Z,14.10
2023-05-10T13:19:31.139Z,14.10
2023-05-10T13:22:06.604Z,14.00
2023-05-10T13:24:40.241Z,14.00
2023-05-10T13:27:07.255Z,14.30
2023-05-10T13:29:43.016Z,14.70
2023-05-10T13:32:11.618Z,14.90
2023-05-10T13:34:45.068Z,14.90
2023-05-10T13:37:12.134Z,15.20
2023-05-10T13:39:39.269Z,15.30
2023-05-10T13:42:13.145Z,15.50
2023-05-10T13:44:47.132Z,15.30
2023-05-10T13:47:21.207Z,15.30
2023-05-10T13:49:48.460Z,15.00
2023-05-10T13:52:22.121Z,14.90
2023-05-10T13:54:56.091Z,14.60
2023-05-10T13:57:24.188Z,14.50
2023-05-10T13:59:51.672Z,14.20
2023-05-10T14:02:25.170Z,13.80
2023-05-10T14:04:52.588Z,13.70
2023-05-10T14:07:26.091Z,13.70
2023-05-10T14:09:59.154Z,13.90
2023-05-10T14:12:26.286Z,14.00
2023-05-10T14:15:00.249Z,14.40
2023-05-10T14:17:27.397Z,14.40
2023-05-10T14:20:09.115Z,14.40
2023-05-10T14:22:42.777Z,14.30
2023-05-10T14:25:17.337Z,14.20
2023-05-10T14:27:44.529Z,14.20
2023-05-10T14:30:19.098Z,14.00
2023-05-10T14:32:47.011Z,14.20
2023-05-10T14:35:21.505Z,14.40
2023-05-10T14:37:55.125Z,14.50
2023-05-10T14:40:23.939Z,14.70
2023-05-10T14:43:01.679Z,14.40
2023-05-10T14:45:28.900Z,14.40
2023-05-10T14:47:56.049Z,14.40
2023-05-10T14:50:36.018Z,14.30
2023-05-10T14:53:17.148Z,14.30
2023-05-10T14:55:44.461Z,14.50
2023-05-10T14:58:18.151Z,14.40
2023-05-10T15:00:52.119Z,14.30
2023-05-10T15:03:26.329Z,14.30
2023-05-10T15:06:01.172Z,14.70
2023-05-10T15:08:28.864Z,14.90
2023-05-10T15:10:56.988Z,14.90
2023-05-10T15:13:31.124Z,15.30
2023-05-10T15:15:58.219Z,15.10
2023-05-10T15:18:32.109Z,15.10
2023-05-10T15:21:05.708Z,14.90
2023-05-10T15:23:41.137Z,15.00
2023-05-10T15:26:08.976Z,15.00
2023-05-10T15:28:42.176Z,14.90
2023-05-10T15:31:10.310Z,14.50
2023-05-10T15:33:46.148Z,14.40
2023-05-10T15:36:13.225Z,14.40
2023-05-10T15:38:47.162Z,14.40
2023-05-10T15:41:14.148Z,14.40
2023-05-10T15:43:42.763Z,14.20
2023-05-10T15:46:16.269Z,13.70
2023-05-10T15:48:51.206Z,13.30
2023-05-10T15:51:27.247Z,13.10
2023-05-10T15:54:07.154Z,12.90
2023-05-10T15:56:42.136Z,12.90
2023-05-10T15:59:18.113Z,12.90
2023-05-10T16:01:52.186Z,13.00
2023-05-10T16:04:19.418Z,13.40
2023-05-10T16:06:53.164Z,13.70
2023-05-10T16:09:20.230Z,13.90
2023-05-10T16:11:55.214Z,13.80
2023-05-10T16:14:23.328Z,14.00
2023-05-10T16:16:59.246Z,14.10
2023-05-10T16:19:34.242Z,14.00
2023-05-10T16:22:14.142Z,13.70
2023-05-10T16:24:49.147Z,13.30
2023-05-10T16:27:16.575Z,13.20
2023-05-10T16:29:50.161Z,13.10
2023-05-10T16:32:17.274Z,13.10
2023-05-10T16:34:56.141Z,13.10
2023-05-10T16:37:29.157Z,13.00
2023-05-10T16:40:03.142Z,12.90
2023-05-10T16:42:37.170Z,12.60
2023-05-10T16:45:07.907Z,12.60
2023-05-10T16:47:46.236Z,12.40
2023-05-10T16:50:13.471Z,12.30
2023-05-10T16:52:47.170Z,12.30
2023-05-10T16:55:22.065Z,12.10
2023-05-10T16:57:58.156Z,12.20
2023-05-10T17:00:27.244Z,12.30
2023-05-10T17:03:03.794Z,12.30
2023-05-10T17:05:32.227Z,12.30
2023-05-10T17:08:06.147Z,12.30
2023-05-10T17:10:40.119Z,12.20
2023-05-10T17:13:08.747Z,12.00
2023-05-10T17:15:45.254Z,12.00
2023-05-10T17:18:12.347Z,11.90
2023-05-10T17:20:53.173Z,11.70
2023-05-10T17:23:33.206Z,11.60
2023-05-10T17:26:07.156Z,11.50
2023-05-10T17:28:34.396Z,11.30
2023-05-10T17:31:09.206Z,11.30
2023-05-10T17:33:44.172Z,11.20
2023-05-10T17:36:12.360Z,11.20
2023-05-10T17:38:46.359Z,11.30
2023-05-10T17:41:14.814Z,11.30
2023-05-10T17:43:43.007Z,11.20
2023-05-10T17:46:16.306Z,11.10
2023-05-10T17:48:50.345Z,11.10
2023-05-10T17:51:25.159Z,11.00
2023-05-10T17:53:59.213Z,10.90
2023-05-10T17:56:33.158Z,10.80
2023-05-10T17:59:00.250Z,10.70
2023-05-10T18:01:34.260Z,10.60
2023-05-10T18:04:01.338Z,10.50
2023-05-10T18:06:36.190Z,10.40
2023-05-10T18:09:05.081Z,10.30
2023-05-10T18:11:39.182Z,10.20
2023-05-10T18:14:14.160Z,10.10
2023-05-10T18:16:54.155Z,10.00
2023-05-10T18:19:28.297Z,9.90
2023-05-10T18:22:10.673Z,9.90
2023-05-10T18:24:44.916Z,9.80
2023-05-10T18:27:19.182Z,9.70
2023-05-10T18:29:47.370Z,9.60
2023-05-10T18:32:21.181Z,9.60
2023-05-10T18:34:55.899Z,9.50
2023-05-10T18:37:30.206Z,9.40
2023-05-10T18:39:57.834Z,9.30
2023-05-10T18:42:32.157Z,9.20
2023-05-10T18:45:00.308Z,9.20
2023-05-10T18:47:34.236Z,9.10
2023-05-10T18:50:05.722Z,9.00
2023-05-10T18:52:32.782Z,9.00
2023-05-10T18:55:07.374Z,8.90
2023-05-10T18:57:41.229Z,8.80
2023-05-10T19:00:18.421Z,8.80
2023-05-10T19:02:45.414Z,8.70
2023-05-10T19:05:21.203Z,8.70
2023-05-10T19:07:55.161Z,8.70
2023-05-10T19:10:29.223Z,8.70
2023-05-10T19:12:57.408Z,8.80
2023-05-10T19:15:31.604Z,8.80
2023-05-10T19:17:59.846Z,8.80
2023-05-10T19:20:33.186Z,8.80
2023-05-10T19:23:15.182Z,8.80
2023-05-10T19:25:52.298Z,8.80
2023-05-10T19:28:26.394Z,8.70
2023-05-10T19:31:02.271Z,8.70
2023-05-10T19:33:29.571Z,8.60
2023-05-10T19:36:03.168Z,8.60
2023-05-10T19:38:32.622Z,8.50
2023-05-10T19:41:06.169Z,8.40
2023-05-10T19:43:38.492Z,8.40
2023-05-10T19:46:13.197Z,8.30
2023-05-10T19:48:43.498Z,8.20
2023-05-10T19:51:20.746Z,8.10
2023-05-10T19:53:47.952Z,8.00
2023-05-10T19:56:27.228Z,8.00
2023-05-10T19:59:01.160Z,7.90
2023-05-10T20:01:35.335Z,7.80
2023-05-10T20:04:09.478Z,7.80
2023-05-10T20:06:36.773Z,7.70
2023-05-10T20:09:11.241Z,7.70
2023-05-10T20:11:45.154Z,7.70
2023-05-10T20:14:20.358Z,7.60
2023-05-10T20:16:47.448Z,7.60
2023-05-10T20:19:43.345Z,7.70
2023-05-10T20:22:10.642Z,7.70
2023-05-10T20:24:37.780Z,7.70
2023-05-10T20:27:12.364Z,7.60
2023-05-10T20:29:39.398Z,7.60
2023-05-10T20:32:13.246Z,7.70
2023-05-10T20:34:41.709Z,7.70
2023-05-10T20:37:15.223Z,7.70
2023-05-10T20:39:42.261Z,7.70
2023-05-10T20:42:16.476Z,7.70
2023-05-10T20:44:50.214Z,7.70
2023-05-10T20:47:25.250Z,7.70
2023-05-10T20:49:59.229Z,7.70
2023-05-10T20:52:26.343Z,7.70
2023-05-10T20:55:01.225Z,7.60
2023-05-10T20:57:37.203Z,7.60
2023-05-10T21:00:05.822Z,7.60
2023-05-10T21:02:39.279Z,7.50
2023-05-10T21:05:07.135Z,7.40
2023-05-10T21:07:41.280Z,7.40
2023-05-10T21:10:11.091Z,7.30
2023-05-10T21:12:38.329Z,7.20
2023-05-10T21:15:13.634Z,7.10
2023-05-10T21:17:40.863Z,7.10
2023-05-10T21:20:15.358Z,7.10
2023-05-10T21:22:51.215Z,7.00
2023-05-10T21:25:25.201Z,7.00
2023-05-10T21:27:54.535Z,7.00
2023-05-10T21:30:28.208Z,7.00
2023-05-10T21:33:06.311Z,7.00
2023-05-10T21:35:40.259Z,6.90
2023-05-10T21:38:14.275Z,6.90
2023-05-10T21:40:42.792Z,6.80
2023-05-10T21:43:11.420Z,6.90
2023-05-10T21:45:45.429Z,6.90
2023-05-10T21:48:13.382Z,6.90
2023-05-10T21:50:50.234Z,7.00
2023-05-10T21:53:17.282Z,7.10
2023-05-10T21:55:53.551Z,7.10
2023-05-10T21:58:28.614Z,7.10
2023-05-10T22:01:03.403Z,7.10
2023-05-10T22:03:30.707Z,7.20
2023-05-10T22:06:04.244Z,7.20
2023-05-10T22:08:31.380Z,7.10
2023-05-10T22:11:05.260Z,7.10
2023-05-10T22:13:39.218Z,7.20
2023-05-10T22:16:07.102Z,7.20
2023-05-10T22:18:40.347Z,7.20
2023-05-10T22:21:16.526Z,7.20
2023-05-10T22:23:50.233Z,7.10
2023-05-10T22:26:19.613Z,7.10
2023-05-10T22:28:53.244Z,7.10
2023-05-10T22:31:27.346Z,7.10
2023-05-10T22:33:54.538Z,7.10
2023-05-10T22:36:28.244Z,7.10
2023-05-10T22:39:02.215Z,7.10
2023-05-10T22:41:36.192Z,7.10
2023-05-10T22:44:11.276Z,7.20
2023-05-10T22:46:41.505Z,7.20
2023-05-10T22:49:15.230Z,7.20
2023-05-10T22:51:49.248Z,7.30
2023-05-10T22:54:23.228Z,7.30
2023-05-10T22:56:59.765Z,7.30
2023-05-10T22:59:35.211Z,7.30
2023-05-10T23:02:09.322Z,7.30
2023-05-10T23:04:36.404Z,7.30
2023-05-10T23:07:10.216Z,7.40
2023-05-10T23:09:37.331Z,7.40
2023-05-10T23:12:11.212Z,7.30
2023-05-10T23:14:38.298Z,7.40
2023-05-10T23:17:05.569Z,7.40
2023-05-10T23:19:40.306Z,7.40
2023-05-10T23:22:14.305Z,7.40
2023-05-10T23:24:51.291Z,7.50
2023-05-10T23:27:18.283Z,7.50
2023-05-10T23:30:07.261Z,7.60
2023-05-10T23:32:42.298Z,7.60
2023-05-10T23:35:16.259Z,7.60
2023-05-10T23:37:43.416Z,7.70
2023-05-10T23:40:17.449Z,7.60
2023-05-10T23:42:45.012Z,7.60
2023-05-10T23:45:18.249Z,7.60
2023-05-10T23:47:53.301Z,7.60
2023-05-10T23:50:27.270Z,7.60
2023-05-10T23:53:01.360Z,7.60
2023-05-10T23:55:38.119Z,7.60
2023-05-10T23:58:19.257Z,7.70
